Time;durP1;ratioP1;P1;durP2;ratioP2;P2;SDS_P1;SDS_P2;PMS_P1;PMS_P2;Temp;Humidity;BMP_temperature;BMP_pressure;BME280_temperature;BME280_humidity;BME280_pressure;Samples;Min_cycle;Max_cycle;Signal;HPM_P1;HPM_P2
2021/04/12 03:06:11;;;;;;;7.40;2.92;;;;;;;12.37;52.86;100391.06;5265424;26;20124;-86
2021/04/12 03:08:57;;;;;;;6.85;2.83;;;;;;;12.21;53.22;100386.88;5278473;27;20061;-86
2021/04/12 03:11:49;;;;;;;10.63;4.30;;;;;;;12.22;53.11;100378.94;5298437;27;20537;-86
2021/04/12 03:14:50;;;;;;;7.43;3.75;;;;;;;12.66;52.07;100387.16;5298366;27;20087;-86
2021/04/12 03:17:40;;;;;;;7.85;3.45;;;;;;;12.41;52.63;100382.22;5298693;27;20111;-86
2021/04/12 03:20:06;;;;;;;7.28;3.62;;;;;;;12.55;52.46;100384.66;5278708;27;20041;-86
2021/04/12 03:22:48;;;;;;;8.60;3.90;;;;;;;12.43;52.81;100388.34;5278864;27;20065;-86
2021/04/12 03:25:14;;;;;;;8.07;4.03;;;;;;;12.36;52.58;100391.09;5278750;27;20758;-86
2021/04/12 04:49:56;;;;;;;5.37;2.70;;;;;;;12.89;52.69;100378.91;5298632;26;20061;-84
2021/04/12 04:53:04;;;;;;;8.63;2.90;;;;;;;13.08;51.97;100385.59;5319066;27;20052;-84
2021/04/12 04:55:46;;;;;;;12.27;3.62;;;;;;;13.77;51.21;100380.94;5301162;27;20128;-84
2021/04/12 04:58:22;;;;;;;8.65;3.72;;;;;;;15.09;47.57;100370.13;5319897;27;20119;-83
2021/04/12 05:23:28;;;;;;;6.87;3.25;;;;;;;20.15;35.40;100363.06;5278061;26;20414;-84
2021/04/12 05:26:06;;;;;;;7.15;3.12;;;;;;;20.64;34.50;100380.31;5318696;27;20473;-83
2021/04/12 05:29:00;;;;;;;6.18;3.05;;;;;;;21.97;31.99;100362.06;5298691;27;20212;-83
2021/04/12 05:31:51;;;;;;;9.57;3.30;;;;;;;22.60;30.91;100363.13;5297734;27;20060;-84
2021/04/12 05:34:36;;;;;;;6.00;3.10;;;;;;;23.15;29.95;100364.47;5298675;27;20056;-84
2021/04/12 10:33:07;;;;;;;8.93;2.53;;;;;;;30.24;23.34;100307.81;5294726;27;20489;-81
2021/04/12 10:35:43;;;;;;;5.47;1.90;;;;;;;29.99;23.54;100309.94;5277465;27;20061;-82
2021/04/12 10:38:40;;;;;;;10.30;2.60;;;;;;;30.68;22.31;100305.59;5297449;27;20107;-82
2021/04/12 10:41:49;;;;;;;4.15;2.12;;;;;;;29.38;23.33;100309.84;5278411;27;20065;-80
2021/04/12 10:44:29;;;;;;;11.93;2.85;;;;;;;30.22;22.84;100294.37;5207138;27;20237;-82
2021/04/12 10:47:07;;;;;;;19.87;4.60;;;;;;;30.55;21.43;100290.44;5190623;27;20063;-82
2021/04/12 12:03:48;;;;;;;;;;;;;;;;;;;;;
2021/04/12 14:30:28;;;;;;;10.30;5.18;;;;;;;19.25;55.04;100447.78;5295518;26;20064;-82
2021/04/12 14:33:02;;;;;;;10.10;4.87;;;;;;;19.12;55.15;100447.41;5297896;27;20077;-83
2021/04/12 14:35:32;;;;;;;10.20;4.30;;;;;;;19.37;55.49;100447.28;5317926;27;20203;-83
2021/04/12 14:38:04;;;;;;;;;;;;;;;19.62;53.92;100432.91;5297986;27;20080;-82
2021/04/12 14:40:34;;;;;;;12.75;8.60;;;;;;;19.65;54.62;100430.16;5318045;27;19980;-83
2021/04/12 14:43:25;;;;;;;10.30;6.28;;;;;;;19.16;56.23;100441.03;5318963;27;20087;-82
2021/04/12 14:46:03;;;;;;;8.07;4.78;;;;;;;19.18;55.58;100441.84;5299825;27;20474;-81
2021/04/12 14:48:34;;;;;;;10.38;5.53;;;;;;;19.43;55.97;100438.16;5319734;27;20833;-83
2021/04/12 14:51:07;;;;;;;10.93;6.40;;;;;;;19.32;57.05;100437.72;5300459;27;20114;-82
2021/04/12 14:53:44;;;;;;;11.02;6.55;;;;;;;19.57;56.76;100419.78;5319613;27;20067;-82
2021/04/12 14:56:24;;;;;;;9.45;5.50;;;;;;;19.43;56.65;100416.84;5320258;27;20780;-83
2021/04/12 14:59:06;;;;;;;10.85;7.20;;;;;;;18.92;58.53;100410.06;5319694;27;20070;-83
2021/04/12 15:01:48;;;;;;;12.23;5.87;;;;;;;19.52;56.15;100409.31;5320118;27;20071;-82
2021/04/12 15:04:22;;;;;;;11.95;8.32;;;;;;;18.39;58.48;100408.53;5320462;27;20905;-83
2021/04/12 15:07:01;;;;;;;13.13;8.18;;;;;;;19.25;55.58;100407.81;5320270;27;20078;-83
2021/04/12 15:09:53;;;;;;;16.70;11.50;;;;;;;18.53;58.76;100416.87;5320037;27;20138;-83
2021/04/12 15:12:24;;;;;;;16.15;11.65;;;;;;;18.79;57.20;100412.34;5320236;27;20056;-83
2021/04/12 15:14:51;;;;;;;16.10;10.38;;;;;;;19.32;56.10;100416.41;5300221;27;20076;-82
2021/04/12 15:17:40;;;;;;;15.85;11.30;;;;;;;18.59;58.44;100406.00;5320240;27;20472;-83
2021/04/12 15:20:08;;;;;;;15.63;11.47;;;;;;;18.91;57.43;100413.66;5319583;27;20128;-83
2021/04/12 15:22:50;;;;;;;13.15;10.07;;;;;;;19.20;57.39;100408.00;5320526;27;20164;-84
2021/04/12 15:25:27;;;;;;;16.62;11.75;;;;;;;18.90;57.89;100403.94;5320284;27;20060;-83
2021/04/12 15:28:24;;;;;;;18.65;12.02;;;;;;;18.03;60.29;100413.41;5320168;27;20075;-82
2021/04/12 15:30:56;;;;;;;12.98;8.18;;;;;;;18.19;60.18;100405.75;5318161;27;20049;-82
2021/04/12 15:33:27;;;;;;;8.85;6.10;;;;;;;18.66;59.03;100403.94;5300335;27;20076;-82
2021/04/12 15:36:05;;;;;;;10.07;7.10;;;;;;;18.76;58.22;100402.69;5320065;27;20619;-85
2021/04/12 15:38:41;;;;;;;10.15;7.60;;;;;;;18.91;59.15;100403.00;5319482;27;20067;-82
2021/04/12 15:41:11;;;;;;;9.80;6.65;;;;;;;19.25;57.55;100405.16;5319952;27;20462;-81
2021/04/12 15:43:42;;;;;;;9.40;6.20;;;;;;;19.19;57.16;100408.94;5319964;27;20071;-84
2021/04/12 15:46:16;;;;;;;11.35;7.20;;;;;;;19.55;56.59;100412.78;5319863;27;20470;-82
2021/04/12 15:48:55;;;;;;;11.68;8.05;;;;;;;19.69;56.23;100418.44;5320059;27;20068;-84
2021/04/12 15:51:30;;;;;;;11.97;7.93;;;;;;;18.93;57.78;100433.97;5320019;27;20564;-83
2021/04/12 15:54:11;;;;;;;11.85;9.10;;;;;;;18.00;62.28;100438.34;5319907;27;20064;-82
2021/04/12 15:56:40;;;;;;;14.68;12.13;;;;;;;17.38;65.29;100451.94;5319887;27;20065;-82
2021/04/12 15:59:17;;;;;;;17.12;13.85;;;;;;;16.36;68.00;100454.19;5319138;27;20083;-82
2021/04/12 16:52:01;;;;;;;14.70;11.17;;;;;;;11.84;73.71;100600.53;5299977;26;20460;-83
2021/04/12 16:54:38;;;;;;;15.80;10.15;;;;;;;11.22;75.57;100600.06;5320072;27;20069;-83
2021/04/12 16:57:08;;;;;;;14.38;10.52;;;;;;;10.90;76.44;100621.22;5319987;27;20104;-82
2021/04/12 17:00:21;;;;;;;17.98;13.02;;;;;;;10.65;77.61;100636.22;5320004;27;20091;-83
2021/04/12 17:03:07;;;;;;;15.35;11.07;;;;;;;11.11;75.85;100623.75;5319760;27;20472;-83
2021/04/12 17:06:09;;;;;;;12.77;9.55;;;;;;;10.68;77.66;100607.28;5319903;27;20163;-83
2021/04/12 17:08:42;;;;;;;9.63;6.85;;;;;;;10.34;78.14;100625.72;5229604;27;20105;-82
2021/04/12 17:11:14;;;;;;;9.57;6.60;;;;;;;10.06;78.95;100627.50;5306252;27;20096;-81
2021/04/12 17:14:21;;;;;;;14.25;8.38;;;;;;;9.94;78.50;100635.34;5320068;27;20124;-82
2021/04/12 17:16:59;;;;;;;5.50;3.33;;;;;;;9.64;74.94;100650.16;5264543;27;20065;-84
2021/04/12 17:19:41;;;;;;;4.82;2.75;;;;;;;9.32;76.27;100673.69;5301614;27;20106;-83
2021/04/12 17:22:23;;;;;;;6.37;3.37;;;;;;;9.52;73.23;100677.25;5319757;27;20053;-84
2021/04/12 17:25:04;;;;;;;7.35;3.35;;;;;;;8.86;76.15;100661.25;5319738;27;20424;-83
2021/04/12 17:27:57;;;;;;;5.68;3.50;;;;;;;8.58;77.16;100681.16;5299705;27;20418;-83
2021/04/12 17:30:31;;;;;;;6.57;3.47;;;;;;;8.79;76.42;100687.41;5305223;27;20053;-83
2021/04/12 17:33:05;;;;;;;8.57;4.55;;;;;;;8.61;77.40;100693.41;5319652;27;20508;-84
2021/04/12 17:35:37;;;;;;;6.85;3.70;;;;;;;8.52;78.71;100709.06;5319704;27;20437;-84
2021/04/12 17:38:25;;;;;;;15.80;7.95;;;;;;;8.60;78.19;100705.63;5319816;27;20414;-85
2021/04/12 17:41:24;;;;;;;2.28;1.73;;;;;;;8.47;76.70;100716.88;5299892;27;20057;-85
2021/04/12 17:44:03;;;;;;;2.45;1.42;;;;;;;8.49;75.11;100717.75;5292363;27;20060;-84
2021/04/12 17:46:42;;;;;;;3.17;1.80;;;;;;;7.90;74.13;100733.75;5300410;27;20563;-85
2021/04/12 17:49:18;;;;;;;8.57;2.75;;;;;;;7.71;74.47;100732.69;5319545;27;20117;-85
2021/04/12 17:52:15;;;;;;;3.85;1.58;;;;;;;7.51;74.69;100722.88;5302938;27;20067;-84
2021/04/12 17:55:18;;;;;;;4.37;2.22;;;;;;;7.11;76.00;100739.78;5320210;27;20427;-85
2021/04/12 17:57:56;;;;;;;4.25;1.90;;;;;;;7.25;76.00;100738.22;5300516;27;20080;-85
2021/04/12 18:01:01;;;;;;;4.70;2.40;;;;;;;6.91;76.28;100749.06;5320554;27;20075;-85
2021/04/12 18:03:46;;;;;;;5.53;2.87;;;;;;;6.97;77.14;100770.06;5271529;27;20128;-85
2021/04/12 18:06:16;;;;;;;15.27;7.57;;;;;;;7.28;75.16;100785.31;5320388;27;20119;-85
2021/04/12 18:08:56;;;;;;;23.95;11.23;;;;;;;7.34;74.81;100795.00;5320625;27;20056;-86
2021/04/12 18:11:46;;;;;;;9.60;5.03;;;;;;;7.20;75.06;100796.53;5320705;27;20057;-85
2021/04/12 18:14:24;;;;;;;4.35;2.10;;;;;;;6.99;76.39;100797.97;5309636;27;20088;-85
2021/04/12 18:16:54;;;;;;;3.03;1.77;;;;;;;6.59;76.35;100815.63;5299406;27;20508;-85
2021/04/12 18:19:45;;;;;;;2.35;1.73;;;;;;;6.72;76.33;100818.44;5304110;27;20769;-85
2021/04/12 18:22:34;;;;;;;1.70;0.90;;;;;;;6.85;75.88;100836.03;5320550;27;20115;-85
2021/04/12 18:25:03;;;;;;;2.83;1.83;;;;;;;6.90;74.87;100830.91;5320405;27;20102;-85
2021/04/12 18:27:54;;;;;;;1.50;0.77;;;;;;;6.85;75.44;100851.72;5300815;27;20432;-85
2021/04/12 18:30:30;;;;;;;2.08;1.40;;;;;;;6.52;75.38;100845.06;5316060;27;20624;-85
2021/04/12 18:32:59;;;;;;;3.20;0.98;;;;;;;6.49;76.29;100847.63;5319007;27;20080;-84
2021/04/12 18:35:29;;;;;;;;;;;;;;;6.71;75.58;100848.03;5320626;27;20368;-85
2021/04/12 18:38:06;;;;;;;2.63;1.00;;;;;;;6.38;76.74;100849.16;5320626;27;19999;-85
2021/04/12 18:40:55;;;;;;;1.60;0.98;;;;;;;6.44;76.93;100856.22;5320572;27;20061;-85
2021/04/12 18:43:48;;;;;;;2.45;1.50;;;;;;;6.32;77.81;100873.44;5320290;27;20517;-85
2021/04/12 18:46:43;;;;;;;5.12;2.10;;;;;;;6.21;78.71;100871.47;5300628;27;20067;-84
2021/04/12 18:49:25;;;;;;;2.08;1.33;;;;;;;6.60;78.27;100859.16;5255144;27;20063;-85
2021/04/12 18:52:06;;;;;;;4.80;1.77;;;;;;;6.25;77.93;100875.88;5320216;27;20145;-84
2021/04/12 18:54:38;;;;;;;5.15;3.22;;;;;;;6.10;77.50;100879.09;5320378;27;20152;-84
2021/04/12 18:57:10;;;;;;;5.50;3.08;;;;;;;6.09;78.08;100878.22;5300756;27;20407;-85
2021/04/12 19:00:15;;;;;;;5.03;3.08;;;;;;;6.22;78.02;100861.06;5320563;27;20045;-85
2021/04/12 19:02:47;;;;;;;5.40;2.90;;;;;;;6.06;78.24;100875.53;5316152;27;20315;-84
2021/04/12 19:05:28;;;;;;;3.72;2.17;;;;;;;6.06;78.15;100878.16;5320112;27;20075;-84
2021/04/12 19:08:07;;;;;;;2.97;1.62;;;;;;;6.16;77.65;100867.87;5320245;27;20459;-84
2021/04/12 19:10:48;;;;;;;3.17;1.87;;;;;;;6.24;76.92;100871.53;5320290;27;20079;-84
2021/04/12 19:13:45;;;;;;;5.18;2.37;;;;;;;6.06;77.19;100880.75;5320354;27;20053;-84
2021/04/12 19:16:27;;;;;;;3.00;1.80;;;;;;;6.02;77.32;100860.66;5320421;27;20065;-84
2021/04/12 19:19:30;;;;;;;4.15;2.28;;;;;;;6.10;75.96;100869.53;5320140;27;20063;-84
2021/04/12 19:22:00;;;;;;;3.85;2.70;;;;;;;6.06;75.88;100891.19;5320429;27;20120;-85
2021/04/12 19:24:34;;;;;;;4.40;2.37;;;;;;;5.91;76.78;100909.97;5320157;27;20077;-84
2021/04/12 19:27:09;;;;;;;4.47;2.22;;;;;;;5.88;77.08;100912.53;5300312;27;20472;-84
2021/04/12 19:29:55;;;;;;;2.60;1.70;;;;;;;6.09;76.88;100921.69;5320298;27;20052;-84
2021/04/12 19:32:30;;;;;;;2.08;1.35;;;;;;;6.62;75.29;100910.50;5320479;27;20048;-84
2021/04/12 19:35:05;;;;;;;3.42;1.80;;;;;;;6.21;75.21;100894.97;5319043;27;20064;-84
2021/04/12 19:38:09;;;;;;;3.65;1.80;;;;;;;6.11;75.58;100904.31;5320283;27;20423;-85
2021/04/12 19:40:49;;;;;;;3.67;2.17;;;;;;;5.90;76.44;100907.31;5320295;27;20067;-84
2021/04/12 19:43:28;;;;;;;4.03;2.15;;;;;;;5.86;77.05;100900.28;5320184;27;20115;-84
2021/04/12 19:46:01;;;;;;;;;;;;;;;5.67;76.97;100909.41;5320465;27;20515;-84
2021/04/12 19:48:43;;;;;;;7.93;3.42;;;;;;;5.52;77.71;100906.47;5300463;27;19964;-83
2021/04/12 19:51:30;;;;;;;4.70;2.62;;;;;;;5.79;76.62;100907.06;5320177;27;20117;-84
2021/04/12 19:54:15;;;;;;;19.90;9.45;;;;;;;5.75;77.61;100907.00;5320307;27;20041;-84
2021/04/12 19:56:45;;;;;;;10.18;6.62;;;;;;;5.68;77.39;100903.38;5320419;27;20112;-84
2021/04/12 19:59:33;;;;;;;8.98;5.15;;;;;;;5.53;77.79;100919.56;5320067;27;20104;-84
2021/04/12 20:02:26;;;;;;;3.95;2.22;;;;;;;5.76;77.67;100906.12;5320224;27;20067;-85
2021/04/12 20:05:24;;;;;;;4.00;2.15;;;;;;;5.78;76.74;100915.75;5320068;27;20435;-84
2021/04/12 20:08:55;;;;;;;4.32;2.70;;;;;;;5.85;76.19;100909.84;5319357;27;20110;-85
2021/04/12 20:11:34;;;;;;;4.95;2.90;;;;;;;5.58;76.36;100936.16;5290481;27;20481;-85
2021/04/12 20:14:17;;;;;;;4.55;2.80;;;;;;;5.66;76.93;100932.00;5319986;27;20049;-85
2021/04/12 20:16:57;;;;;;;3.90;2.58;;;;;;;5.52;75.97;100940.34;5319503;27;20070;-85
2021/04/12 20:19:36;;;;;;;2.95;2.03;;;;;;;5.67;75.67;100957.22;5319968;27;20065;-85
2021/04/12 20:22:14;;;;;;;3.87;2.33;;;;;;;5.89;74.25;100931.66;5319864;27;20120;-85
2021/04/12 20:24:56;;;;;;;3.28;2.55;;;;;;;5.73;74.94;100932.16;5300457;27;20411;-84
2021/04/12 20:27:38;;;;;;;4.95;2.55;;;;;;;5.67;74.86;100936.38;5320298;27;20087;-84
2021/04/12 20:30:31;;;;;;;3.03;2.35;;;;;;;5.61;75.08;100938.84;5320064;27;20391;-85
2021/04/12 20:33:40;;;;;;;2.85;2.17;;;;;;;5.62;74.41;100953.66;5320127;27;20124;-85
2021/04/12 20:36:28;;;;;;;3.78;2.58;;;;;;;5.51;75.60;100952.53;5318395;27;20056;-85
2021/04/12 20:39:00;;;;;;;3.42;2.58;;;;;;;5.76;73.46;100940.03;5300131;27;20067;-84
2021/04/12 20:41:45;;;;;;;3.58;2.25;;;;;;;5.29;75.21;100926.78;5319950;27;20057;-85
2021/04/12 20:44:55;;;;;;;4.32;2.37;;;;;;;5.18;76.12;100935.22;5319936;27;20430;-85
2021/04/12 20:47:50;;;;;;;3.72;2.42;;;;;;;5.24;74.83;100940.59;5299972;27;20067;-85
2021/04/12 20:50:47;;;;;;;2.90;2.15;;;;;;;5.22;76.18;100939.66;5319988;27;20045;-84
2021/04/12 20:53:21;;;;;;;5.22;3.78;;;;;;;5.11;75.93;100941.13;5319817;27;20065;-85
2021/04/12 20:55:50;;;;;;;4.72;3.00;;;;;;;5.12;75.14;100935.09;5300205;27;20124;-84
2021/04/12 20:58:37;;;;;;;3.25;2.37;;;;;;;5.24;75.17;100943.19;5319794;27;20379;-85
2021/04/12 21:01:19;;;;;;;3.50;2.22;;;;;;;5.22;75.21;100924.03;5320054;27;20528;-84
2021/04/12 21:03:51;;;;;;;3.83;2.30;;;;;;;5.24;74.83;100927.56;5319746;27;20057;-85
2021/04/12 21:06:30;;;;;;;3.97;2.65;;;;;;;5.11;74.97;100933.28;5319792;27;20463;-85
2021/04/12 21:09:21;;;;;;;4.62;3.00;;;;;;;5.13;75.13;100928.16;5319868;27;20068;-85
2021/04/12 21:11:50;;;;;;;3.25;2.17;;;;;;;5.22;74.98;100897.97;5300018;27;20068;-85
2021/04/12 21:14:36;;;;;;;4.75;3.20;;;;;;;5.09;75.04;100889.81;5320017;27;20075;-85
2021/04/12 21:17:09;;;;;;;3.75;2.40;;;;;;;4.96;74.65;100891.25;5319984;27;20060;-85
2021/04/12 21:19:42;;;;;;;3.80;2.65;;;;;;;5.13;74.48;100876.91;5319837;27;20123;-84
2021/04/12 21:22:25;;;;;;;3.87;2.80;;;;;;;4.98;75.02;100881.75;5319870;27;20090;-85
2021/04/12 21:25:16;;;;;;;3.78;2.50;;;;;;;5.10;73.85;100874.25;5319690;27;20124;-85
2021/04/12 21:27:50;;;;;;;4.93;2.80;;;;;;;5.07;72.98;100895.00;5299906;27;20079;-85
2021/04/12 21:30:44;;;;;;;4.25;2.30;;;;;;;4.98;73.27;100900.00;5299919;27;20448;-85
2021/04/12 21:33:19;;;;;;;3.28;2.58;;;;;;;5.08;73.51;100896.75;5320019;27;20072;-85
2021/04/12 21:35:48;;;;;;;3.67;2.78;;;;;;;5.05;73.08;100903.62;5319851;27;20065;-85
2021/04/12 21:38:25;;;;;;;3.15;2.20;;;;;;;5.10;72.02;100915.03;5319745;27;20070;-85
2021/04/12 21:41:16;;;;;;;4.30;3.10;;;;;;;5.18;71.57;100940.44;5299810;27;20109;-85
2021/04/12 21:43:59;;;;;;;4.95;3.22;;;;;;;5.27;71.58;100924.16;5319698;27;20061;-85
2021/04/12 21:46:33;;;;;;;4.10;2.80;;;;;;;5.31;71.50;100886.91;5299964;27;20095;-85
2021/04/12 21:49:38;;;;;;;3.58;2.65;;;;;;;5.08;71.75;100886.34;5319948;27;20052;-85
2021/04/12 21:52:28;;;;;;;4.55;2.78;;;;;;;5.04;71.47;100940.94;5190573;27;20055;-85
2021/04/12 21:55:33;;;;;;;4.25;3.40;;;;;;;5.38;70.86;100914.87;5208443;27;20055;-85
2021/04/12 21:58:24;;;;;;;3.50;2.42;;;;;;;5.62;69.81;100888.47;5308662;27;20089;-85
2021/04/12 22:01:12;;;;;;;6.43;3.33;;;;;;;5.13;70.68;100904.69;5319506;27;20381;-85
2021/04/12 22:03:47;;;;;;;4.18;2.47;;;;;;;5.04;71.27;100915.78;5319745;27;20355;-85
2021/04/12 22:06:39;;;;;;;3.55;2.40;;;;;;;5.10;70.58;100921.13;5319578;27;20119;-85
2021/04/12 22:09:10;;;;;;;3.90;2.90;;;;;;;5.25;70.19;100928.44;5319680;27;20474;-85
2021/04/12 22:12:18;;;;;;;3.37;2.70;;;;;;;5.12;69.54;100923.78;5319472;27;20057;-85
2021/04/12 22:15:00;;;;;;;3.75;2.62;;;;;;;5.21;69.59;100943.13;5319549;27;20065;-85
2021/04/12 22:17:53;;;;;;;4.15;2.67;;;;;;;5.30;69.87;100925.97;5319428;27;20057;-85
2021/04/12 22:20:38;;;;;;;5.55;3.33;;;;;;;5.36;69.64;100926.97;5299616;27;20416;-85
2021/04/12 22:23:15;;;;;;;3.45;2.37;;;;;;;5.43;68.99;100923.66;5319846;27;20060;-85
2021/04/12 22:25:49;;;;;;;4.22;2.90;;;;;;;5.31;69.03;100927.72;5299612;27;20525;-84
2021/04/12 22:28:38;;;;;;;3.83;2.62;;;;;;;5.32;69.51;100932.06;5319529;27;20093;-84
2021/04/12 22:31:19;;;;;;;2.78;2.28;;;;;;;5.18;69.90;100924.81;5299380;27;20057;-85
2021/04/12 22:33:56;;;;;;;3.87;2.60;;;;;;;5.19;69.45;100895.31;5299941;27;20070;-85
2021/04/12 22:42:51;;;;;;;3.17;2.12;;;;;;;5.23;70.09;100871.09;5320435;27;20069;-85
2021/04/12 22:45:48;;;;;;;3.28;2.47;;;;;;;5.43;68.94;100895.00;5307929;27;20072;-85
2021/04/12 22:48:18;;;;;;;3.95;2.67;;;;;;;5.36;68.76;100867.03;5282664;27;20462;-85
2021/04/12 22:50:57;;;;;;;3.00;2.28;;;;;;;5.22;69.06;100887.56;5300612;27;20139;-85
2021/04/12 22:53:26;;;;;;;3.20;2.77;;;;;;;5.40;68.67;100878.41;5320396;27;20095;-85
2021/04/12 22:59:05;;;;;;;3.12;2.40;;;;;;;5.56;68.25;100870.09;5320091;27;20052;-85
